Sunday, October 21, 2018, 7:10 PM EDT
Back to Local

KORE, Orange, Orange Municipal Airport

Location: Orange, MA, United States Lat: 42.572
Local Time: 7:10 PM EDT (23:10 GMT) Lon: -72.278
Time Zone: US/Eastern Elev: 554 ft

Show me the last for .
Show Decoded

2018-10-21 18:52 METAR KORE 212252Z AUTO 34004KT 10SM CLR 03/M08 A2999 RMK AO2 SLP161 T00281078 =
2018-10-21 17:52 METAR KORE 212152Z AUTO 34006KT 10SM CLR 04/M08 A2996 RMK AO2 SLP148 T00441083 =
2018-10-21 16:52 METAR KORE 212052Z AUTO 31014G24KT 10SM CLR 06/M09 A2992 RMK AO2 SLP135
                 T00611089 53016 =
2018-10-21 15:52 METAR KORE 211952Z AUTO 33014G19KT 10SM FEW055 07/M08 A2989 RMK AO2 SLP126
                 T00671078 =
2018-10-21 14:52 METAR KORE 211852Z AUTO 32015G22KT 10SM SCT055 07/M06 A2988 RMK AO2 PK WND
                 32028/1821 SLP123 T00671061 =
2018-10-21 13:52 METAR KORE 211752Z AUTO 33019G28KT 10SM OVC047 06/M06 A2987 RMK AO2 PK WND
                 32028/1750 SLP119 T00611056 10067 20050 53008 =
2018-10-21 12:52 METAR KORE 211652Z AUTO 31013G20KT 10SM BKN039 OVC049 06/M04 A2986 RMK AO2
                 SLP114 T00561039 =
2018-10-21 11:52 METAR KORE 211552Z AUTO 32011G23KT 10SM OVC042 06/M04 A2985 RMK AO2 PK WND
                 34027/1536 SLP113 T00561039 =
2018-10-21 10:52 METAR KORE 211452Z AUTO 33017G23KT 10SM OVC040 06/M04 A2985 RMK AO2 PK WND
                 36027/1418 SLP111 T00561039 51032 =
2018-10-21 09:52 METAR KORE 211352Z AUTO 33018G26KT 10SM OVC041 06/M04 A2983 RMK AO2 PK WND
                 36027/1341 SLP105 T00561039 =
2018-10-21 08:52 METAR KORE 211252Z AUTO 34015G20KT 10SM BKN047 06/M02 A2980 RMK AO2 SLP093
                 T00611022 =
2018-10-21 07:52 METAR KORE 211152Z AUTO 33013KT 10SM FEW037 SCT090 OVC110 07/M01 A2975 RMK AO2
                 SLP078 60004 70004 T00671011 10094 20061 53040 =
2018-10-21 06:52 METAR KORE 211052Z AUTO 33004KT 10SM OVC090 06/02 A2970 RMK AO2 SLP059 T00610017
                 =
2018-10-21 05:52 METAR KORE 210952Z AUTO 01007KT 10SM OVC060 07/01 A2966 RMK AO2 RAE34 SLP047
                 P0001 T00720006 =
2018-10-21 04:52 METAR KORE 210852Z AUTO 01010G21KT 10SM -RA OVC031 07/02 A2963 RMK AO2 SLP037
                 P0003 60003 T00720017 53015 =
2018-10-21 03:52 METAR KORE 210752Z AUTO 33010KT 10SM -RA OVC039 09/03 A2961 RMK AO2 RAB30 SLP027
                 P0000 T00890028 =
2018-10-21 02:52 METAR KORE 210652Z AUTO 32006KT 10SM OVC065 09/03 A2960 RMK AO2 SLP024 T00940033
                 =
2018-10-21 01:52 METAR KORE 210552Z AUTO 33003KT 10SM OVC065 08/06 A2959 RMK AO2 SLP021 T00780061
                 10089 20078 58003 =
2018-10-21 00:52 METAR KORE 210452Z AUTO 21003KT 10SM OVC070 08/06 A2960 RMK AO2 SLP025 T00780061
                 401610072 =
2018-10-20 23:52 METAR KORE 210352Z AUTO 00000KT 10SM OVC085 08/06 A2960 RMK AO2 SLP025 T00780061
                 =
2018-10-20 22:52 METAR KORE 210252Z AUTO 00000KT 10SM OVC080 08/06 A2960 RMK AO2 SLP024 T00830061
                 50001 =
2018-10-20 21:52 METAR KORE 210152Z AUTO 00000KT 10SM OVC090 08/06 A2960 RMK AO2 SLP027 T00780056
                 =
2018-10-20 20:52 METAR KORE 210052Z AUTO 00000KT 10SM OVC090 08/06 A2960 RMK AO2 SLP024 T00780056
                 =
2018-10-20 19:52 METAR KORE 202352Z AUTO 23003KT 10SM CLR 08/06 A2960 RMK AO2 SLP024 60000
                 T00780056 10156 20072 53006 =

Support USWX by starting your Amazon purchase here.